Time;durP1;ratioP1;P1;durP2;ratioP2;P2;SDS_P1;SDS_P2;PMS_P1;PMS_P2;Temp;Humidity;BMP_temperature;BMP_pressure;BME280_temperature;BME280_humidity;BME280_pressure;Samples;Min_cycle;Max_cycle;Signal;HPM_P1;HPM_P2
2022/10/24 00:02:00;;;;;;;;;;;14.40;99.90;;;;;;4991006;28;20010;-73
2022/10/24 00:04:46;;;;;;;;;;;14.40;99.90;;;;;;4885880;28;19922;-74
2022/10/24 00:07:34;;;;;;;;;;;14.40;99.90;;;;;;4792253;28;20130;-73
2022/10/24 00:10:00;;;;;;;;;;;14.40;99.90;;;;;;4892477;28;19922;-74
2022/10/24 00:12:26;;;;;;;;;;;14.40;99.90;;;;;;4971188;28;19918;-73
2022/10/24 00:15:02;;;;;;;;;;;14.40;99.90;;;;;;4825672;28;20158;-74
2022/10/24 00:17:28;;;;;;;;;;;14.40;99.90;;;;;;4980792;28;19971;-74
2022/10/24 00:19:58;;;;;;;;;;;14.40;99.90;;;;;;4978887;28;19930;-74
2022/10/24 00:22:25;;;;;;;;;;;14.40;99.90;;;;;;4971529;28;20295;-73
2022/10/24 00:24:51;;;;;;;;;;;14.40;99.90;;;;;;4981404;28;19916;-73
2022/10/24 00:27:17;;;;;;;;;;;14.40;99.90;;;;;;4973050;28;19945;-74
2022/10/24 00:29:44;;;;;;;;;;;14.50;99.90;;;;;;4833326;28;20795;-75
2022/10/24 00:32:13;;;;;;;;;;;14.50;99.90;;;;;;4856733;28;20027;-74
2022/10/24 00:34:40;;;;;;;;;;;14.50;99.90;;;;;;4968506;28;19922;-75
2022/10/24 00:37:10;;;;;;;;;;;14.50;99.90;;;;;;4920360;28;20284;-75
2022/10/24 00:39:45;;;;;;;;;;;14.50;99.90;;;;;;4857012;28;20508;-75
2022/10/24 00:42:11;;;;;;;;;;;14.50;99.90;;;;;;4866225;28;20012;-75
2022/10/24 00:44:41;;;;;;;;;;;14.50;99.90;;;;;;4974566;28;19924;-74
2022/10/24 00:47:18;;;;;;;;;;;14.50;99.90;;;;;;4911330;28;20281;-73
2022/10/24 00:50:06;;;;;;;;;;;14.50;99.90;;;;;;4850931;28;20238;-74
2022/10/24 00:52:57;;;;;;;;;;;14.50;99.90;;;;;;4910929;22;22019;-73
2022/10/24 00:55:23;;;;;;;;;;;14.50;99.90;;;;;;5046404;28;20386;-74
2022/10/24 00:58:00;;;;;;;;;;;14.50;99.90;;;;;;4944134;28;20553;-74
2022/10/24 01:01:03;;;;;;;;;;;14.60;99.90;;;;;;4920426;28;20209;-74
2022/10/24 01:03:47;;;;;;;;;;;14.60;99.90;;;;;;4978909;28;19936;-74
2022/10/24 01:06:20;;;;;;;;;;;14.60;99.90;;;;;;5048932;28;20007;-74
2022/10/24 01:08:51;;;;;;;;;;;14.60;99.90;;;;;;5062856;28;19927;-74
2022/10/24 01:11:24;;;;;;;;;;;14.60;99.90;;;;;;5038611;28;20286;-74
2022/10/24 01:13:59;;;;;;;;;;;14.70;99.90;;;;;;5048795;28;20306;-73
2022/10/24 01:16:30;;;;;;;;;;;14.70;99.90;;;;;;5052552;28;20011;-77
2022/10/24 01:19:00;;;;;;;;;;;14.60;99.90;;;;;;5052185;28;19917;-75
2022/10/24 01:21:32;;;;;;;;;;;14.70;99.90;;;;;;5044320;28;20305;-75
2022/10/24 01:24:17;;;;;;;;;;;14.70;99.90;;;;;;5022878;28;20352;-75
2022/10/24 01:27:05;;;;;;;;;;;14.70;99.90;;;;;;4913732;28;20601;-74
2022/10/24 01:29:40;;;;;;;;;;;14.70;99.90;;;;;;4916427;28;20630;-74
2022/10/24 01:32:57;;;;;;;;;;;14.70;99.90;;;;;;4906531;28;20085;-75
2022/10/24 01:35:47;;;;;;;;;;;14.70;99.90;;;;;;5001381;28;20176;-75
2022/10/24 01:38:43;;;;;;;;;;;14.80;99.90;;;;;;5052228;28;20001;-76
2022/10/24 01:41:19;;;;;;;;;;;14.80;99.90;;;;;;5030476;28;19917;-74
2022/10/24 01:43:52;;;;;;;;;;;14.80;99.90;;;;;;5047263;28;19960;-75
2022/10/24 01:46:22;;;;;;;;;;;14.80;99.90;;;;;;5057083;28;19945;-75
2022/10/24 01:48:56;;;;;;;;;;;14.90;99.90;;;;;;5059466;28;19921;-75
2022/10/24 01:51:27;;;;;;;;;;;14.90;99.90;;;;;;5026892;28;19957;-76
2022/10/24 01:53:55;;;;;;;;;;;14.90;99.90;;;;;;5036911;28;20537;-77
2022/10/24 01:56:24;;;;;;;;;;;15.00;99.90;;;;;;5057554;28;19979;-77
2022/10/24 01:58:50;;;;;;;;;;;15.00;99.90;;;;;;5042423;28;20066;-74
2022/10/24 02:01:20;;;;;;;;;;;14.90;99.90;;;;;;5047051;28;20003;-75
2022/10/24 02:03:54;;;;;;;;;;;14.90;99.90;;;;;;5035021;28;19970;-74
2022/10/24 02:06:23;;;;;;;;;;;14.90;99.90;;;;;;5050579;28;20175;-75
2022/10/24 02:08:51;;;;;;;;;;;14.90;99.90;;;;;;5039679;28;19935;-75
2022/10/24 02:11:17;;;;;;;;;;;14.90;99.90;;;;;;5034928;28;20427;-75
2022/10/24 02:14:01;;;;;;;;;;;15.00;99.90;;;;;;5040943;28;19921;-75
2022/10/24 02:16:27;;;;;;;;;;;14.90;99.90;;;;;;5040697;28;19986;-73
2022/10/24 02:18:53;;;;;;;;;;;14.90;99.90;;;;;;5040838;28;19916;-75
2022/10/24 02:21:39;;;;;;;;;;;15.00;99.90;;;;;;5036825;28;20001;-76
2022/10/24 02:24:25;;;;;;;;;;;15.00;99.90;;;;;;5023101;28;19925;-73
2022/10/24 02:26:56;;;;;;;;;;;14.90;99.90;;;;;;5043427;28;20603;-76
2022/10/24 02:29:28;;;;;;;;;;;15.00;99.90;;;;;;5033265;28;19929;-75
2022/10/24 02:31:55;;;;;;;;;;;15.00;99.90;;;;;;5025030;28;19931;-75
2022/10/24 02:34:22;;;;;;;;;;;15.00;99.90;;;;;;5046964;28;19917;-75
2022/10/24 02:36:52;;;;;;;;;;;15.00;99.90;;;;;;5037656;28;19933;-75
2022/10/24 02:39:18;;;;;;;;;;;15.00;99.90;;;;;;5054137;28;19927;-74
2022/10/24 02:41:44;;;;;;;;;;;15.00;99.90;;;;;;5023997;28;19924;-75
2022/10/24 02:44:11;;;;;;;;;;;15.00;99.90;;;;;;5039407;28;19917;-75
2022/10/24 02:46:37;;;;;;;;;;;15.00;99.90;;;;;;5052076;28;19942;-76
2022/10/24 02:49:03;;;;;;;;;;;15.00;99.90;;;;;;5067987;22;19924;-76
2022/10/24 02:51:35;;;;;;;;;;;15.00;99.90;;;;;;5093890;28;19923;-81
2022/10/24 02:54:01;;;;;;;;;;;15.00;99.90;;;;;;5071942;28;19920;-77
2022/10/24 02:56:28;;;;;;;;;;;15.00;99.90;;;;;;5079358;28;20007;-77
2022/10/24 02:58:53;;;;;;;;;;;15.00;99.90;;;;;;5077538;28;19987;-77
2022/10/24 03:01:19;;;;;;;;;;;15.00;99.90;;;;;;5072141;28;19916;-76
2022/10/24 03:03:45;;;;;;;;;;;15.00;99.90;;;;;;5076756;28;20436;-77
2022/10/24 03:06:10;;;;;;;;;;;15.00;99.90;;;;;;5081942;28;19970;-77
2022/10/24 03:08:36;;;;;;;;;;;15.00;99.90;;;;;;5050356;28;19964;-77
2022/10/24 03:11:02;;;;;;;;;;;15.00;99.90;;;;;;5073398;28;19947;-77
2022/10/24 03:13:28;;;;;;;;;;;15.10;99.90;;;;;;5079183;28;19920;-77
2022/10/24 03:15:53;;;;;;;;;;;15.10;99.90;;;;;;5077765;28;19926;-77
2022/10/24 03:18:19;;;;;;;;;;;15.10;99.90;;;;;;5072033;28;20356;-77
2022/10/24 03:20:45;;;;;;;;;;;15.10;99.90;;;;;;5068590;28;20046;-77
2022/10/24 03:23:11;;;;;;;;;;;15.10;99.90;;;;;;5079982;28;19977;-77
2022/10/24 03:25:36;;;;;;;;;;;15.10;99.90;;;;;;5070920;28;20328;-77
2022/10/24 03:28:02;;;;;;;;;;;15.10;99.90;;;;;;5074366;28;19987;-77
2022/10/24 03:30:27;;;;;;;;;;;15.10;99.90;;;;;;5079733;28;19977;-77
2022/10/24 03:32:53;;;;;;;;;;;15.10;99.90;;;;;;5066309;28;19916;-77
2022/10/24 03:35:19;;;;;;;;;;;15.00;99.90;;;;;;5081210;28;20314;-75
2022/10/24 03:37:44;;;;;;;;;;;15.00;99.90;;;;;;5075063;28;19924;-75
2022/10/24 03:40:10;;;;;;;;;;;15.00;99.90;;;;;;5079113;28;19917;-74
2022/10/24 03:42:35;;;;;;;;;;;15.00;99.90;;;;;;5065903;28;19928;-74
2022/10/24 03:45:01;;;;;;;;;;;15.10;99.90;;;;;;5072000;28;19920;-74
2022/10/24 03:47:27;;;;;;;;;;;15.10;99.90;;;;;;5068501;28;19989;-74
2022/10/24 03:49:52;;;;;;;;;;;15.00;99.90;;;;;;5071429;28;19915;-75
2022/10/24 03:52:18;;;;;;;;;;;15.10;99.90;;;;;;5062436;28;20066;-75
2022/10/24 03:54:43;;;;;;;;;;;15.10;99.90;;;;;;5066238;28;20015;-75
2022/10/24 03:57:09;;;;;;;;;;;15.10;99.90;;;;;;5077527;28;20007;-75
2022/10/24 03:59:35;;;;;;;;;;;15.10;99.90;;;;;;5067421;28;19970;-74
2022/10/24 04:02:01;;;;;;;;;;;15.10;99.90;;;;;;5066142;28;19969;-75
2022/10/24 04:04:27;;;;;;;;;;;15.10;99.90;;;;;;5083444;28;19967;-74
2022/10/24 04:06:53;;;;;;;;;;;15.10;99.90;;;;;;5065994;28;19964;-75
2022/10/24 04:09:19;;;;;;;;;;;15.00;99.90;;;;;;5062905;28;20182;-75
2022/10/24 04:11:46;;;;;;;;;;;15.00;99.90;;;;;;5070263;28;19924;-75
2022/10/24 04:14:11;;;;;;;;;;;15.00;99.90;;;;;;5069815;28;19960;-75
2022/10/24 04:16:37;;;;;;;;;;;15.00;99.90;;;;;;5066940;28;19924;-74
2022/10/24 04:19:02;;;;;;;;;;;15.00;99.90;;;;;;5072623;28;20377;-75
2022/10/24 04:21:28;;;;;;;;;;;15.00;99.90;;;;;;5073528;28;19916;-74
2022/10/24 04:23:53;;;;;;;;;;;14.90;99.90;;;;;;5068598;28;20376;-73
2022/10/24 04:26:19;;;;;;;;;;;14.90;99.90;;;;;;5064612;28;19927;-74
2022/10/24 04:28:47;;;;;;;;;;;14.90;99.90;;;;;;5068498;28;19920;-74
2022/10/24 04:31:13;;;;;;;;;;;14.80;99.90;;;;;;5068128;28;19916;-74
2022/10/24 04:33:39;;;;;;;;;;;14.80;99.90;;;;;;5072175;28;20011;-74
2022/10/24 04:36:05;;;;;;;;;;;14.70;99.90;;;;;;5071648;28;20018;-74
2022/10/24 04:38:30;;;;;;;;;;;14.80;99.90;;;;;;5067660;28;19934;-77
2022/10/24 04:40:56;;;;;;;;;;;14.80;99.90;;;;;;5067304;28;19995;-76
2022/10/24 04:43:22;;;;;;;;;;;14.70;99.90;;;;;;5073593;28;19916;-76
2022/10/24 04:45:48;;;;;;;;;;;14.70;99.90;;;;;;5064183;28;20257;-77
2022/10/24 04:48:14;;;;;;;;;;;14.70;99.90;;;;;;5069550;28;20059;-77
2022/10/24 04:50:41;;;;;;;;;;;14.70;99.90;;;;;;5079836;28;19945;-76
2022/10/24 04:53:06;;;;;;;;;;;14.70;99.90;;;;;;5066367;28;19916;-77
2022/10/24 04:55:33;;;;;;;;;;;14.60;99.90;;;;;;5065975;28;19920;-76
2022/10/24 04:57:58;;;;;;;;;;;14.70;99.90;;;;;;5073990;28;19924;-76
2022/10/24 05:00:24;;;;;;;;;;;14.60;99.90;;;;;;5064373;28;19916;-77
2022/10/24 05:02:50;;;;;;;;;;;14.60;99.90;;;;;;5073059;28;19961;-76
2022/10/24 05:05:16;;;;;;;;;;;14.60;99.90;;;;;;5062431;28;19971;-76
2022/10/24 05:07:42;;;;;;;;;;;14.60;99.90;;;;;;5071738;28;19916;-76
2022/10/24 05:10:08;;;;;;;;;;;14.60;99.90;;;;;;5069835;28;20014;-77
2022/10/24 05:12:33;;;;;;;;;;;14.60;99.90;;;;;;5075343;28;19991;-77
2022/10/24 05:14:59;;;;;;;;;;;14.60;99.90;;;;;;5071763;28;19951;-76
2022/10/24 05:17:24;;;;;;;;;;;14.60;99.90;;;;;;5068314;28;19920;-76
2022/10/24 05:19:50;;;;;;;;;;;14.60;99.90;;;;;;5073724;28;19920;-76
2022/10/24 05:22:15;;;;;;;;;;;14.70;99.90;;;;;;5075984;28;20455;-77
2022/10/24 05:24:41;;;;;;;;;;;14.70;99.90;;;;;;5067362;28;19920;-76
2022/10/24 05:27:06;;;;;;;;;;;14.70;99.90;;;;;;5078547;28;19920;-76
2022/10/24 05:29:32;;;;;;;;;;;14.70;99.90;;;;;;5070729;28;20251;-77
2022/10/24 05:31:58;;;;;;;;;;;14.80;99.90;;;;;;5064984;28;19924;-76
2022/10/24 05:34:23;;;;;;;;;;;14.80;99.90;;;;;;5063797;28;20377;-76
2022/10/24 05:36:49;;;;;;;;;;;14.80;99.90;;;;;;5074276;28;20285;-74
2022/10/24 05:39:17;;;;;;;;;;;14.80;99.90;;;;;;5080103;28;19973;-74
2022/10/24 05:41:43;;;;;;;;;;;14.90;99.90;;;;;;5075671;28;19953;-74
2022/10/24 05:44:11;;;;;;;;;;;14.80;99.90;;;;;;5081001;28;19990;-74
2022/10/24 05:46:37;;;;;;;;;;;14.80;99.90;;;;;;5066231;28;20007;-74
2022/10/24 05:49:03;;;;;;;;;;;14.80;99.90;;;;;;5051992;28;20340;-75
2022/10/24 05:51:28;;;;;;;;;;;14.80;99.90;;;;;;5072643;28;19928;-76
2022/10/24 05:53:54;;;;;;;;;;;14.80;99.90;;;;;;5066743;28;19919;-73
2022/10/24 05:56:20;;;;;;;;;;;14.80;99.90;;;;;;5064495;28;19989;-74
2022/10/24 05:58:45;;;;;;;;;;;14.80;99.90;;;;;;5073056;28;19962;-73
2022/10/24 06:01:11;;;;;;;;;;;14.80;99.90;;;;;;5059766;28;19999;-74
2022/10/24 06:03:38;;;;;;;;;;;14.80;99.90;;;;;;5063171;28;20369;-74
2022/10/24 06:06:05;;;;;;;;;;;14.80;99.90;;;;;;5073249;28;20416;-73
2022/10/24 06:08:32;;;;;;;;;;;14.80;99.90;;;;;;5074147;28;19922;-73
2022/10/24 06:10:57;;;;;;;;;;;14.80;99.90;;;;;;5053650;28;19939;-74
2022/10/24 06:13:23;;;;;;;;;;;14.80;99.90;;;;;;5069655;28;19924;-74
2022/10/24 06:15:48;;;;;;;;;;;14.80;99.90;;;;;;5075648;28;20011;-73
2022/10/24 06:18:14;;;;;;;;;;;14.80;99.90;;;;;;5066399;28;20705;-73
2022/10/24 06:20:39;;;;;;;;;;;14.80;99.90;;;;;;5077148;28;19916;-73
2022/10/24 06:23:05;;;;;;;;;;;14.80;99.90;;;;;;5070246;28;19995;-76
2022/10/24 06:25:31;;;;;;;;;;;14.70;99.90;;;;;;5071114;28;20317;-76
2022/10/24 06:27:56;;;;;;;;;;;14.80;99.90;;;;;;5066157;28;19916;-75
2022/10/24 06:30:22;;;;;;;;;;;14.80;99.90;;;;;;5060993;28;19956;-74
2022/10/24 06:32:47;;;;;;;;;;;14.80;99.90;;;;;;5073217;28;19939;-74
2022/10/24 06:35:14;;;;;;;;;;;14.80;99.90;;;;;;5079033;28;19939;-74
2022/10/24 06:37:40;;;;;;;;;;;14.90;99.90;;;;;;5069291;28;19924;-74
2022/10/24 06:40:06;;;;;;;;;;;14.90;99.90;;;;;;5078889;28;20170;-74
2022/10/24 06:42:32;;;;;;;;;;;14.90;99.90;;;;;;5070909;28;19928;-75
2022/10/24 06:44:57;;;;;;;;;;;15.00;99.90;;;;;;5073012;28;19916;-74
2022/10/24 06:47:23;;;;;;;;;;;14.90;99.90;;;;;;5081749;28;19949;-74
2022/10/24 06:49:48;;;;;;;;;;;15.00;99.90;;;;;;5072653;28;19999;-74
2022/10/24 06:52:14;;;;;;;;;;;15.00;99.90;;;;;;5080454;28;19920;-74
2022/10/24 06:54:40;;;;;;;;;;;15.00;99.90;;;;;;5071032;28;19920;-74
2022/10/24 06:57:05;;;;;;;;;;;15.00;99.90;;;;;;5081859;28;19919;-74
2022/10/24 06:59:31;;;;;;;;;;;15.00;99.90;;;;;;5073280;28;19916;-74
2022/10/24 07:01:57;;;;;;;;;;;15.10;99.90;;;;;;5071614;28;20256;-74
2022/10/24 07:04:24;;;;;;;;;;;15.00;99.90;;;;;;5071523;28;19916;-74
2022/10/24 07:06:49;;;;;;;;;;;15.10;99.90;;;;;;5058139;28;20476;-74
2022/10/24 07:09:16;;;;;;;;;;;15.10;99.90;;;;;;5055221;28;19920;-74
2022/10/24 07:11:42;;;;;;;;;;;15.20;99.90;;;;;;5062180;28;19916;-74
2022/10/24 07:14:08;;;;;;;;;;;15.10;99.90;;;;;;5069356;28;19976;-74
2022/10/24 07:16:34;;;;;;;;;;;15.20;99.90;;;;;;5073328;28;19995;-74
2022/10/24 07:18:59;;;;;;;;;;;15.20;99.90;;;;;;5073903;28;20024;-74
2022/10/24 07:21:27;;;;;;;;;;;15.20;99.90;;;;;;5076009;28;19920;-75
2022/10/24 07:23:53;;;;;;;;;;;15.20;99.90;;;;;;5066598;28;19916;-76
2022/10/24 07:26:19;;;;;;;;;;;15.20;99.90;;;;;;5071259;28;20072;-76
2022/10/24 07:28:46;;;;;;;;;;;15.20;99.90;;;;;;5063869;28;19931;-75
2022/10/24 07:31:18;;;;;;;;;;;15.30;99.90;;;;;;5065983;28;19919;-76
2022/10/24 07:33:44;;;;;;;;;;;15.30;99.90;;;;;;5067568;28;19923;-75
2022/10/24 07:36:09;;;;;;;;;;;15.30;99.90;;;;;;5073683;28;19916;-75
2022/10/24 07:38:36;;;;;;;;;;;15.30;99.90;;;;;;5084966;28;20423;-75
2022/10/24 07:41:02;;;;;;;;;;;15.40;99.90;;;;;;5062076;28;19916;-74
2022/10/24 07:43:27;;;;;;;;;;;15.40;99.90;;;;;;5070350;28;19916;-75
2022/10/24 07:45:53;;;;;;;;;;;15.40;99.90;;;;;;5067940;28;19927;-74
2022/10/24 07:48:18;;;;;;;;;;;15.40;99.90;;;;;;5074124;28;19916;-74
2022/10/24 07:50:45;;;;;;;;;;;15.40;99.90;;;;;;5068611;28;20170;-75
2022/10/24 07:53:11;;;;;;;;;;;15.40;99.90;;;;;;5069565;28;20281;-75
2022/10/24 07:55:40;;;;;;;;;;;15.40;99.90;;;;;;5079770;28;20020;-74
2022/10/24 07:58:06;;;;;;;;;;;15.40;99.90;;;;;;5080207;28;19995;-74
2022/10/24 08:00:32;;;;;;;;;;;15.40;99.90;;;;;;5080483;28;19915;-75
2022/10/24 08:02:58;;;;;;;;;;;15.50;99.90;;;;;;5065619;28;19915;-74
2022/10/24 08:05:23;;;;;;;;;;;15.50;99.90;;;;;;5068026;28;20011;-75
2022/10/24 08:07:49;;;;;;;;;;;15.50;99.90;;;;;;5060711;28;19916;-75
2022/10/24 08:10:15;;;;;;;;;;;15.50;99.90;;;;;;5063871;28;20423;-75
2022/10/24 08:12:41;;;;;;;;;;;15.50;99.90;;;;;;5073896;28;20003;-75
2022/10/24 08:15:07;;;;;;;;;;;15.50;99.90;;;;;;5073869;28;20054;-75
2022/10/24 08:17:32;;;;;;;;;;;15.50;99.90;;;;;;5079591;28;20226;-76
2022/10/24 08:19:58;;;;;;;;;;;15.60;99.90;;;;;;5075090;28;19916;-75
2022/10/24 08:22:23;;;;;;;;;;;15.60;99.90;;;;;;5071613;28;20508;-75
2022/10/24 08:24:49;;;;;;;;;;;15.60;99.90;;;;;;5069317;28;19924;-75
2022/10/24 08:27:14;;;;;;;;;;;15.60;99.90;;;;;;5071400;28;19925;-75
2022/10/24 08:29:40;;;;;;;;;;;15.50;99.90;;;;;;5067542;28;19920;-74
2022/10/24 08:32:06;;;;;;;;;;;15.50;99.90;;;;;;5071801;28;19917;-74
2022/10/24 08:34:32;;;;;;;;;;;15.50;99.90;;;;;;5067085;28;19916;-75
2022/10/24 08:36:57;;;;;;;;;;;15.50;99.90;;;;;;5068066;28;19978;-74
2022/10/24 08:39:23;;;;;;;;;;;15.50;99.90;;;;;;5077644;28;19952;-74
2022/10/24 08:41:56;;;;;;;;;;;15.60;99.90;;;;;;5065620;28;19924;-74
2022/10/24 08:44:30;;;;;;;;;;;15.60;99.90;;;;;;5067639;28;19968;-75
2022/10/24 08:47:07;;;;;;;;;;;15.60;99.90;;;;;;5061850;28;19925;-75
2022/10/24 08:52:02;;;;;;;;;;;15.80;99.90;;;;;;5072755;28;19921;-78
2022/10/24 08:54:30;;;;;;;;;;;15.80;99.90;;;;;;5045858;28;20364;-72
2022/10/24 08:56:57;;;;;;;;;;;15.80;99.90;;;;;;5039432;28;20312;-73
2022/10/24 08:59:24;;;;;;;;;;;15.90;99.90;;;;;;5045041;28;19974;-73
2022/10/24 09:01:51;;;;;;;;;;;15.90;99.90;;;;;;5050593;28;19923;-72
2022/10/24 09:04:18;;;;;;;;;;;15.90;99.90;;;;;;5022977;28;19924;-73
2022/10/24 09:06:44;;;;;;;;;;;16.00;99.90;;;;;;5050138;28;19927;-72
2022/10/24 09:09:18;;;;;;;;;;;16.00;99.90;;;;;;5025779;28;19967;-73
2022/10/24 09:11:51;;;;;;;;;;;16.10;99.90;;;;;;5042512;28;19925;-73
2022/10/24 09:14:21;;;;;;;;;;;16.20;99.90;;;;;;5029102;28;20390;-73
2022/10/24 09:16:50;;;;;;;;;;;16.20;99.90;;;;;;5039800;28;19956;-73
2022/10/24 09:19:18;;;;;;;;;;;16.20;99.90;;;;;;5044820;28;19923;-74
2022/10/24 09:21:44;;;;;;;;;;;16.20;99.90;;;;;;5042800;28;19917;-74
2022/10/24 09:24:31;;;;;;;;;;;16.20;99.90;;;;;;5045442;28;19940;-73
2022/10/24 09:26:59;;;;;;;;;;;16.20;99.90;;;;;;5047024;28;19938;-81
2022/10/24 09:29:27;;;;;;;;;;;16.30;99.90;;;;;;5047445;28;19925;-73
2022/10/24 09:31:53;;;;;;;;;;;16.30;99.90;;;;;;5025538;28;19916;-73
2022/10/24 09:34:18;;;;;;;;;;;16.30;99.90;;;;;;5043298;28;20287;-73
2022/10/24 09:36:44;;;;;;;;;;;16.30;99.90;;;;;;5038468;28;19920;-73
2022/10/24 09:39:22;;;;;;;;;;;16.30;99.90;;;;;;5060125;28;20439;-73
2022/10/24 09:41:47;;;;;;;;;;;16.30;99.90;;;;;;5047349;28;19924;-73
2022/10/24 09:44:27;;;;;;;;;;;16.30;99.90;;;;;;5058656;28;19943;-73
2022/10/24 09:46:53;;;;;;;;;;;16.20;99.90;;;;;;5035205;28;19917;-73
2022/10/24 09:49:21;;;;;;;;;;;16.20;99.90;;;;;;5050925;28;20296;-73
2022/10/24 09:51:49;;;;;;;;;;;16.20;99.90;;;;;;5034977;28;19920;-73
2022/10/24 09:54:17;;;;;;;;;;;16.20;99.90;;;;;;5038122;28;19932;-73
2022/10/24 09:56:44;;;;;;;;;;;16.20;99.90;;;;;;5048225;28;20047;-73
2022/10/24 09:59:29;;;;;;;;;;;16.10;99.90;;;;;;5053607;28;19923;-73
2022/10/24 10:02:17;;;;;;;;;;;16.20;99.90;;;;;;5061259;28;19920;-73
2022/10/24 10:04:43;;;;;;;;;;;16.20;99.90;;;;;;5061306;28;19916;-73
2022/10/24 10:07:24;;;;;;;;;;;16.30;99.90;;;;;;5038758;28;19916;-73
2022/10/24 10:09:57;;;;;;;;;;;16.30;99.90;;;;;;5064868;28;19920;-73
2022/10/24 10:12:24;;;;;;;;;;;16.40;99.90;;;;;;5067583;28;19916;-73
2022/10/24 10:14:51;;;;;;;;;;;16.30;99.90;;;;;;5028649;28;19917;-73
2022/10/24 10:17:24;;;;;;;;;;;16.20;99.90;;;;;;5037640;28;19924;-73
2022/10/24 10:19:50;;;;;;;;;;;16.20;99.90;;;;;;5007692;28;19917;-73
2022/10/24 10:22:30;;;;;;;;;;;16.10;99.90;;;;;;5044088;28;19928;-74
2022/10/24 10:24:58;;;;;;;;;;;16.00;99.90;;;;;;5031462;28;19928;-73
2022/10/24 10:27:25;;;;;;;;;;;15.90;99.90;;;;;;5034025;28;19923;-73
2022/10/24 10:30:09;;;;;;;;;;;15.80;99.90;;;;;;5049078;28;19921;-73
2022/10/24 10:32:42;;;;;;;;;;;15.80;99.90;;;;;;5027271;28;19924;-73
2022/10/24 10:35:13;;;;;;;;;;;15.80;99.90;;;;;;5046349;28;19920;-73
2022/10/24 10:37:42;;;;;;;;;;;15.80;99.90;;;;;;5053769;28;19974;-73
2022/10/24 10:40:11;;;;;;;;;;;15.90;99.90;;;;;;5043502;28;19916;-73
2022/10/24 10:42:39;;;;;;;;;;;16.00;99.90;;;;;;5041762;28;19924;-73
2022/10/24 10:45:08;;;;;;;;;;;16.10;99.90;;;;;;5023060;28;19924;-73
2022/10/24 10:47:52;;;;;;;;;;;16.20;99.90;;;;;;5027160;28;19971;-73
2022/10/24 10:50:21;;;;;;;;;;;16.20;99.90;;;;;;5044165;28;19972;-74
2022/10/24 10:52:47;;;;;;;;;;;16.40;99.90;;;;;;5030577;28;20294;-73
2022/10/24 10:55:23;;;;;;;;;;;16.30;99.90;;;;;;5045729;28;20378;-73
2022/10/24 10:57:48;;;;;;;;;;;16.40;99.90;;;;;;5045349;28;19970;-73
2022/10/24 11:00:17;;;;;;;;;;;16.30;99.90;;;;;;5031271;28;19921;-72
2022/10/24 11:02:48;;;;;;;;;;;16.30;99.90;;;;;;5032106;28;19917;-72
2022/10/24 11:05:33;;;;;;;;;;;16.20;99.90;;;;;;5049965;28;19939;-73
2022/10/24 11:08:10;;;;;;;;;;;16.20;99.90;;;;;;5030093;28;19921;-72
2022/10/24 11:10:39;;;;;;;;;;;16.10;99.90;;;;;;5026646;28;20112;-73
2022/10/24 11:13:06;;;;;;;;;;;16.10;99.90;;;;;;5029114;28;19928;-72
2022/10/24 11:15:34;;;;;;;;;;;16.20;99.90;;;;;;5028200;28;19955;-73
2022/10/24 11:18:00;;;;;;;;;;;16.20;99.90;;;;;;5025318;28;20023;-72
2022/10/24 11:20:28;;;;;;;;;;;16.10;99.90;;;;;;5051586;28;19916;-72
2022/10/24 11:22:56;;;;;;;;;;;16.20;99.90;;;;;;5042040;28;19974;-73
2022/10/24 11:25:28;;;;;;;;;;;16.10;99.90;;;;;;5050031;28;19921;-73
2022/10/24 11:28:05;;;;;;;;;;;16.10;99.90;;;;;;5027228;28;19928;-73
2022/10/24 11:30:37;;;;;;;;;;;16.10;99.90;;;;;;5039099;28;19994;-72
2022/10/24 11:33:06;;;;;;;;;;;16.10;99.90;;;;;;5030990;28;19979;-73
2022/10/24 11:35:32;;;;;;;;;;;16.10;99.90;;;;;;5052060;28;20342;-72
2022/10/24 11:38:00;;;;;;;;;;;16.20;99.90;;;;;;5049249;28;20023;-73
2022/10/24 11:40:27;;;;;;;;;;;16.20;99.90;;;;;;5032906;28;20015;-73
2022/10/24 11:43:11;;;;;;;;;;;16.20;99.90;;;;;;5047230;28;19972;-72
2022/10/24 11:45:43;;;;;;;;;;;16.20;99.90;;;;;;5046541;28;20058;-72
2022/10/24 11:48:14;;;;;;;;;;;16.20;99.90;;;;;;5027928;28;20324;-73
2022/10/24 11:50:52;;;;;;;;;;;16.10;99.90;;;;;;5047262;28;20079;-72
2022/10/24 11:53:38;;;;;;;;;;;16.10;99.90;;;;;;5026730;28;19917;-73
2022/10/24 11:56:22;;;;;;;;;;;16.00;99.90;;;;;;5030917;28;19928;-72
2022/10/24 11:58:51;;;;;;;;;;;16.00;99.90;;;;;;5042904;28;19920;-72
2022/10/24 12:01:31;;;;;;;;;;;16.10;99.90;;;;;;5040360;28;19999;-73
2022/10/24 12:04:16;;;;;;;;;;;16.10;99.90;;;;;;5040798;28;19916;-73
2022/10/24 12:07:09;;;;;;;;;;;16.30;99.90;;;;;;5023186;28;19916;-73
2022/10/24 12:09:44;;;;;;;;;;;16.40;99.90;;;;;;5035498;28;20127;-73
2022/10/24 12:12:09;;;;;;;;;;;16.60;99.90;;;;;;5041492;28;20512;-73
2022/10/24 12:14:50;;;;;;;;;;;16.70;99.90;;;;;;5017534;28;19952;-73
2022/10/24 12:17:37;;;;;;;;;;;16.70;99.90;;;;;;5041935;28;19921;-73
2022/10/24 12:20:05;;;;;;;;;;;16.60;99.90;;;;;;5023336;28;20367;-73
2022/10/24 12:22:36;;;;;;;;;;;16.50;99.90;;;;;;5044581;28;19917;-73
2022/10/24 12:25:03;;;;;;;;;;;16.50;99.90;;;;;;5040358;28;19917;-72
2022/10/24 12:27:31;;;;;;;;;;;16.40;99.90;;;;;;5029232;28;19923;-73
2022/10/24 12:30:14;;;;;;;;;;;16.40;99.90;;;;;;5027585;28;19929;-73
2022/10/24 12:32:52;;;;;;;;;;;16.40;99.90;;;;;;5032373;28;19916;-72
2022/10/24 12:35:29;;;;;;;;;;;16.40;99.90;;;;;;5042479;28;19920;-72
2022/10/24 12:37:55;;;;;;;;;;;16.50;99.90;;;;;;5009393;28;19999;-72
2022/10/24 12:40:43;;;;;;;;;;;16.50;99.90;;;;;;5046759;28;20385;-73
2022/10/24 12:43:12;;;;;;;;;;;16.50;99.90;;;;;;5019226;28;19994;-73
2022/10/24 12:45:38;;;;;;;;;;;16.60;99.90;;;;;;5023336;28;19916;-73
2022/10/24 12:48:27;;;;;;;;;;;16.80;99.90;;;;;;5025771;28;19925;-74
2022/10/24 12:50:58;;;;;;;;;;;16.90;99.90;;;;;;5039475;28;19928;-74
2022/10/24 12:53:33;;;;;;;;;;;17.10;99.90;;;;;;5045409;28;19943;-74
2022/10/24 12:55:58;;;;;;;;;;;17.10;99.90;;;;;;5010622;28;19970;-73
2022/10/24 12:58:30;;;;;;;;;;;17.10;99.90;;;;;;5028884;28;19989;-74
2022/10/24 13:00:56;;;;;;;;;;;17.20;99.90;;;;;;5010459;28;19921;-73
2022/10/24 13:03:40;;;;;;;;;;;17.30;99.90;;;;;;5025630;28;19963;-74
2022/10/24 13:06:11;;;;;;;;;;;17.30;99.90;;;;;;5028146;28;19921;-73
2022/10/24 13:08:51;;;;;;;;;;;17.40;99.90;;;;;;5010339;28;19932;-73
2022/10/24 13:11:19;;;;;;;;;;;17.40;99.90;;;;;;5028047;28;19917;-73
2022/10/24 13:13:50;;;;;;;;;;;17.40;99.90;;;;;;5010216;28;20001;-73
2022/10/24 13:16:19;;;;;;;;;;;17.20;99.90;;;;;;5028688;28;19924;-74
2022/10/24 13:18:56;;;;;;;;;;;17.10;99.90;;;;;;5009318;28;19917;-72
2022/10/24 13:21:33;;;;;;;;;;;16.90;99.90;;;;;;5018814;28;20289;-74
2022/10/24 13:24:28;;;;;;;;;;;16.70;99.90;;;;;;5029448;28;19962;-72
2022/10/24 13:26:57;;;;;;;;;;;16.60;99.90;;;;;;5034310;28;19978;-73
2022/10/24 13:29:22;;;;;;;;;;;16.50;99.90;;;;;;5030248;28;19924;-74
2022/10/24 13:31:49;;;;;;;;;;;16.50;99.90;;;;;;5029096;28;19917;-74
2022/10/24 13:34:45;;;;;;;;;;;16.40;99.90;;;;;;4993832;28;19999;-73
2022/10/24 13:37:18;;;;;;;;;;;16.40;99.90;;;;;;5018044;28;20278;-74
2022/10/24 13:39:49;;;;;;;;;;;16.40;99.90;;;;;;5028515;28;19923;-74
2022/10/24 13:42:22;;;;;;;;;;;16.50;99.90;;;;;;5009665;28;19920;-74
2022/10/24 13:44:49;;;;;;;;;;;16.60;99.90;;;;;;5027878;28;19928;-73
2022/10/24 13:47:20;;;;;;;;;;;16.70;99.90;;;;;;5042712;28;20390;-74
2022/10/24 13:49:54;;;;;;;;;;;16.90;99.90;;;;;;5046353;28;20362;-74
2022/10/24 13:52:33;;;;;;;;;;;17.00;99.90;;;;;;5047745;28;19940;-73
2022/10/24 13:55:11;;;;;;;;;;;17.00;99.90;;;;;;5012814;28;19932;-73
2022/10/24 13:57:48;;;;;;;;;;;17.00;99.90;;;;;;5021493;28;20334;-72
2022/10/24 14:00:18;;;;;;;;;;;16.90;99.90;;;;;;5010191;28;20367;-73
2022/10/24 14:02:44;;;;;;;;;;;16.80;99.90;;;;;;5029833;28;20354;-72
2022/10/24 14:05:22;;;;;;;;;;;16.80;99.90;;;;;;5013487;28;19917;-74
2022/10/24 14:07:48;;;;;;;;;;;16.90;99.90;;;;;;5046511;28;19939;-73
2022/10/24 14:10:15;;;;;;;;;;;16.90;99.90;;;;;;5030058;28;19916;-73
2022/10/24 14:12:43;;;;;;;;;;;17.00;99.90;;;;;;5021062;28;19939;-74
2022/10/24 14:15:17;;;;;;;;;;;16.90;99.90;;;;;;5047431;28;19917;-73
2022/10/24 14:17:51;;;;;;;;;;;16.80;99.90;;;;;;5047117;28;20009;-72
2022/10/24 14:20:25;;;;;;;;;;;16.70;99.90;;;;;;5047461;28;19990;-73
2022/10/24 14:22:51;;;;;;;;;;;16.60;99.90;;;;;;5030351;28;20281;-73
2022/10/24 14:25:22;;;;;;;;;;;16.50;99.90;;;;;;5032450;28;19925;-73
2022/10/24 14:27:48;;;;;;;;;;;16.50;99.90;;;;;;5024386;28;19971;-73
2022/10/24 14:30:18;;;;;;;;;;;16.40;99.90;;;;;;5013748;28;19917;-73
2022/10/24 14:32:44;;;;;;;;;;;16.30;99.90;;;;;;5030747;28;19924;-74
2022/10/24 14:35:10;;;;;;;;;;;16.20;99.90;;;;;;5042677;28;19917;-74